createdAt,value
2019-01-30T00:00:34.103Z,23.43
2019-01-30T00:01:42.295Z,29.27
2019-01-30T00:02:49.899Z,27.17
2019-01-30T00:03:57.824Z,26.87
2019-01-30T00:05:08.920Z,24.50
2019-01-30T00:06:16.528Z,21.23
2019-01-30T00:07:24.136Z,27.10
2019-01-30T00:08:31.913Z,24.83
2019-01-30T00:09:40.037Z,24.67
2019-01-30T00:10:47.845Z,22.67
2019-01-30T00:11:55.949Z,21.97
2019-01-30T00:13:04.389Z,27.50
2019-01-30T00:14:11.992Z,26.87
2019-01-30T00:15:19.771Z,16.83
2019-01-30T00:16:27.561Z,22.33
2019-01-30T00:17:35.285Z,30.57
2019-01-30T00:18:43.317Z,39.50
2019-01-30T00:19:51.434Z,34.27
2019-01-30T00:20:59.336Z,17.83
2019-01-30T00:22:07.182Z,32.83
2019-01-30T00:23:15.212Z,40.03
2019-01-30T00:24:23.034Z,31.90
2019-01-30T00:25:30.973Z,36.40
2019-01-30T00:26:39.338Z,28.03
2019-01-30T00:27:47.427Z,24.03
2019-01-30T00:28:55.080Z,31.57
2019-01-30T00:30:04.189Z,27.27
2019-01-30T00:31:12.552Z,30.23
2019-01-30T00:32:21.003Z,15.10
2019-01-30T00:33:28.597Z,37.07
2019-01-30T00:34:36.749Z,37.87
2019-01-30T00:35:44.580Z,36.30
2019-01-30T00:36:52.578Z,25.97
2019-01-30T00:38:00.473Z,22.90
2019-01-30T00:39:08.748Z,31.90
2019-01-30T00:40:22.123Z,31.43
2019-01-30T00:41:30.423Z,33.70
2019-01-30T00:42:38.176Z,30.57
2019-01-30T00:43:45.911Z,20.00
2019-01-30T00:44:53.641Z,31.37
2019-01-30T00:46:01.609Z,30.23
2019-01-30T00:47:15.755Z,38.40
2019-01-30T00:48:19.107Z,36.00
2019-01-30T00:49:26.797Z,32.77
2019-01-30T00:50:35.157Z,38.40
2019-01-30T00:51:43.041Z,43.57
2019-01-30T00:52:50.723Z,41.77
2019-01-30T00:53:58.631Z,48.00
2019-01-30T00:55:09.184Z,38.53
2019-01-30T00:56:16.963Z,40.87
2019-01-30T00:57:26.762Z,47.00
2019-01-30T00:58:34.649Z,49.47
2019-01-30T00:59:42.698Z,42.40
2019-01-30T01:00:50.867Z,30.50
2019-01-30T01:01:58.644Z,35.13
2019-01-30T01:03:06.415Z,29.00
2019-01-30T01:04:14.672Z,27.57
2019-01-30T01:05:22.740Z,38.07
2019-01-30T01:06:30.708Z,27.53
2019-01-30T01:07:38.697Z,29.63
2019-01-30T01:08:46.550Z,42.90
2019-01-30T01:09:54.274Z,20.00
2019-01-30T01:11:02.389Z,42.27
2019-01-30T01:12:10.464Z,21.17
2019-01-30T01:13:18.106Z,35.53
2019-01-30T01:14:26.161Z,39.43
2019-01-30T01:15:34.261Z,33.73
2019-01-30T01:16:42.881Z,34.27
2019-01-30T01:17:51.277Z,23.40
2019-01-30T01:18:59.235Z,37.00
2019-01-30T01:20:11.359Z,28.60
2019-01-30T01:21:19.138Z,50.57
2019-01-30T01:22:27.298Z,38.57
2019-01-30T01:23:35.435Z,42.97
2019-01-30T01:24:43.321Z,27.10
2019-01-30T01:25:51.819Z,55.13
2019-01-30T01:26:59.599Z,35.23
2019-01-30T01:28:07.977Z,33.27
2019-01-30T01:29:16.219Z,35.83
2019-01-30T01:30:29.439Z,35.47
2019-01-30T01:31:39.476Z,47.20
2019-01-30T01:32:47.662Z,42.17
2019-01-30T01:33:55.290Z,46.40
2019-01-30T01:35:03.291Z,54.30
2019-01-30T01:36:11.293Z,41.10
2019-01-30T01:37:18.950Z,39.30
2019-01-30T01:38:26.815Z,46.57
2019-01-30T01:39:34.582Z,57.33
2019-01-30T01:40:42.551Z,33.63
2019-01-30T01:41:50.100Z,24.83
2019-01-30T01:42:58.134Z,54.73
2019-01-30T01:44:06.184Z,44.90
2019-01-30T01:45:25.594Z,49.17
2019-01-30T01:46:33.708Z,38.97
2019-01-30T01:47:41.645Z,38.80
2019-01-30T01:48:49.530Z,40.07
2019-01-30T01:49:57.456Z,41.23
2019-01-30T01:51:05.506Z,36.23
2019-01-30T01:52:13.413Z,35.27
2019-01-30T01:53:21.419Z,21.80
2019-01-30T01:54:29.301Z,41.07
2019-01-30T01:55:37.563Z,42.70
2019-01-30T01:56:45.132Z,35.47
2019-01-30T01:57:53.489Z,29.03
2019-01-30T01:59:01.171Z,36.83
2019-01-30T02:00:34.954Z,34.83
2019-01-30T02:01:34.118Z,24.93
2019-01-30T02:02:42.260Z,43.20
2019-01-30T02:03:49.891Z,38.23
2019-01-30T02:04:58.072Z,30.30
2019-01-30T02:06:06.118Z,30.10
2019-01-30T02:07:14.246Z,24.40
2019-01-30T02:08:22.262Z,44.90
2019-01-30T02:09:30.263Z,28.80
2019-01-30T02:10:38.436Z,43.93
2019-01-30T02:11:46.391Z,23.77
2019-01-30T02:12:54.419Z,18.63
2019-01-30T02:14:02.487Z,25.57
2019-01-30T02:15:14.608Z,28.43
2019-01-30T02:16:22.758Z,41.53
2019-01-30T02:17:30.723Z,20.70
2019-01-30T02:18:38.497Z,22.80
2019-01-30T02:19:46.606Z,28.53
2019-01-30T02:20:54.676Z,20.13
2019-01-30T02:22:02.746Z,25.50
2019-01-30T02:23:10.640Z,29.93
2019-01-30T02:24:18.532Z,26.33
2019-01-30T02:25:26.376Z,18.57
2019-01-30T02:26:34.033Z,23.87
2019-01-30T02:27:42.635Z,26.80
2019-01-30T02:28:50.737Z,21.30
2019-01-30T02:29:58.904Z,36.10
2019-01-30T02:31:06.462Z,27.50
2019-01-30T02:32:15.245Z,16.77
2019-01-30T02:33:23.062Z,24.30
2019-01-30T02:34:31.025Z,29.63
2019-01-30T02:35:38.876Z,20.50
2019-01-30T02:36:59.342Z,14.30
2019-01-30T02:38:07.098Z,20.17
2019-01-30T02:39:14.806Z,30.60
2019-01-30T02:40:25.361Z,31.47
2019-01-30T02:41:33.766Z,22.50
2019-01-30T02:42:42.336Z,19.93
2019-01-30T02:43:50.308Z,19.27
2019-01-30T02:44:58.063Z,23.07
2019-01-30T02:46:05.824Z,14.30
2019-01-30T02:47:14.588Z,27.00
2019-01-30T02:48:22.673Z,11.47
2019-01-30T02:49:30.381Z,15.87
2019-01-30T02:50:38.496Z,18.93
2019-01-30T02:51:46.349Z,16.63
2019-01-30T02:52:54.532Z,21.63
2019-01-30T02:54:02.394Z,23.00
2019-01-30T02:55:13.258Z,15.73
2019-01-30T02:56:20.966Z,16.23
2019-01-30T02:57:28.592Z,24.23
2019-01-30T02:58:37.296Z,16.27
2019-01-30T02:59:45.392Z,14.13
2019-01-30T03:00:59.291Z,17.47
2019-01-30T03:02:04.725Z,16.20
2019-01-30T03:03:12.837Z,18.43
2019-01-30T03:04:20.753Z,18.37
2019-01-30T03:05:29.036Z,13.57
2019-01-30T03:06:37.202Z,16.83
2019-01-30T03:07:45.899Z,13.90
2019-01-30T03:08:54.451Z,10.00
2019-01-30T03:10:02.713Z,23.30
2019-01-30T03:11:10.904Z,18.47
2019-01-30T03:12:19.212Z,16.23
2019-01-30T03:13:27.542Z,16.60
2019-01-30T03:14:35.949Z,18.27
2019-01-30T03:15:44.128Z,14.50
2019-01-30T03:16:52.105Z,22.90
2019-01-30T03:18:00.009Z,12.63
2019-01-30T03:19:08.365Z,19.63
2019-01-30T03:20:26.031Z,16.57
2019-01-30T03:21:34.535Z,9.20
2019-01-30T03:22:42.331Z,19.67
2019-01-30T03:23:50.755Z,18.20
2019-01-30T03:24:58.869Z,19.13
2019-01-30T03:26:06.543Z,13.13
2019-01-30T03:27:14.465Z,14.20
2019-01-30T03:28:22.351Z,22.03
2019-01-30T03:29:30.198Z,14.37
2019-01-30T03:30:38.208Z,15.07
2019-01-30T03:31:45.999Z,11.43
2019-01-30T03:32:53.829Z,21.17
2019-01-30T03:34:01.744Z,15.83
2019-01-30T03:35:09.727Z,19.37
2019-01-30T03:36:17.283Z,18.37
2019-01-30T03:37:25.126Z,17.00
2019-01-30T03:38:33.036Z,20.30
2019-01-30T03:39:41.739Z,15.97
2019-01-30T03:40:49.875Z,14.07
2019-01-30T03:41:57.688Z,19.97
2019-01-30T03:43:05.495Z,12.87
2019-01-30T03:44:13.221Z,18.63
2019-01-30T03:45:24.061Z,16.00
2019-01-30T03:46:31.934Z,12.87
2019-01-30T03:47:39.481Z,13.00
2019-01-30T03:48:47.246Z,23.07
2019-01-30T03:49:55.054Z,18.17
2019-01-30T03:51:03.459Z,12.87
2019-01-30T03:52:11.794Z,14.63
2019-01-30T03:53:19.949Z,13.67
2019-01-30T03:54:27.903Z,16.60
2019-01-30T03:55:35.571Z,8.97
2019-01-30T03:56:44.273Z,13.80
2019-01-30T03:57:52.363Z,18.63
2019-01-30T03:59:00.353Z,14.97
2019-01-30T04:00:15.355Z,14.30
2019-01-30T04:01:26.693Z,14.03
2019-01-30T04:02:32.856Z,16.13
2019-01-30T04:03:40.888Z,21.87
2019-01-30T04:04:48.716Z,12.43
2019-01-30T04:05:56.856Z,9.33
2019-01-30T04:07:07.720Z,13.57
2019-01-30T04:08:15.602Z,10.73
2019-01-30T04:09:23.503Z,17.17
2019-01-30T04:10:31.788Z,16.53
2019-01-30T04:11:39.502Z,17.27
2019-01-30T04:12:47.556Z,16.10
2019-01-30T04:13:55.276Z,18.23
2019-01-30T04:15:03.726Z,14.33
2019-01-30T04:16:11.658Z,22.27
2019-01-30T04:17:19.362Z,16.67
2019-01-30T04:18:27.103Z,11.83
2019-01-30T04:19:35.131Z,8.80
2019-01-30T04:20:43.295Z,15.10
2019-01-30T04:21:51.254Z,9.70
2019-01-30T04:22:59.418Z,10.53
2019-01-30T04:24:07.306Z,14.93
2019-01-30T04:25:15.716Z,15.17
2019-01-30T04:26:23.973Z,13.87
2019-01-30T04:27:31.700Z,18.30
2019-01-30T04:28:39.441Z,11.73
2019-01-30T04:29:47.126Z,12.00
2019-01-30T04:30:55.629Z,9.30
2019-01-30T04:32:03.327Z,9.53
2019-01-30T04:33:11.303Z,11.73
2019-01-30T04:34:19.187Z,10.50
2019-01-30T04:35:27.393Z,13.60
2019-01-30T04:36:35.604Z,10.97
2019-01-30T04:37:43.525Z,13.93
2019-01-30T04:38:51.612Z,16.03
2019-01-30T04:39:59.640Z,14.67
2019-01-30T04:41:07.576Z,17.40
2019-01-30T04:42:15.488Z,13.97
2019-01-30T04:43:23.304Z,14.27
2019-01-30T04:44:31.026Z,12.50
2019-01-30T04:45:38.827Z,14.27
2019-01-30T04:46:47.004Z,10.63
2019-01-30T04:47:55.105Z,12.73
2019-01-30T04:49:03.141Z,16.37
2019-01-30T04:50:11.935Z,18.50
2019-01-30T04:51:20.103Z,17.10
2019-01-30T04:52:28.309Z,23.80
2019-01-30T04:53:36.772Z,14.80
2019-01-30T04:54:44.806Z,17.00
2019-01-30T04:55:52.812Z,7.77
2019-01-30T04:57:01.109Z,21.30
2019-01-30T04:58:08.860Z,23.90
2019-01-30T04:59:16.904Z,25.67
2019-01-30T05:00:27.482Z,19.27
2019-01-30T05:01:35.533Z,15.83
2019-01-30T05:02:43.862Z,15.97
2019-01-30T05:03:51.955Z,17.00
2019-01-30T05:05:00.227Z,10.27
2019-01-30T05:06:08.563Z,12.77
2019-01-30T05:07:16.755Z,21.93
2019-01-30T05:08:24.545Z,16.87
2019-01-30T05:09:32.608Z,11.77
2019-01-30T05:10:40.741Z,12.03
2019-01-30T05:11:48.958Z,11.83
2019-01-30T05:12:57.104Z,18.37
2019-01-30T05:14:05.284Z,8.10
2019-01-30T05:15:16.550Z,19.93
2019-01-30T05:16:24.719Z,13.73
2019-01-30T05:17:33.049Z,8.47
2019-01-30T05:18:41.064Z,14.33
2019-01-30T05:19:49.130Z,13.27
2019-01-30T05:20:57.161Z,18.27
2019-01-30T05:22:04.846Z,15.53
2019-01-30T05:23:13.856Z,12.00
2019-01-30T05:24:22.167Z,13.17
2019-01-30T05:25:30.411Z,11.03
2019-01-30T05:26:38.269Z,12.13
2019-01-30T05:27:47.800Z,14.57
2019-01-30T05:28:56.005Z,11.60
2019-01-30T05:30:06.146Z,10.03
2019-01-30T05:31:14.119Z,18.90
2019-01-30T05:32:22.093Z,7.90
2019-01-30T05:33:30.406Z,14.27
2019-01-30T05:34:38.562Z,14.57
2019-01-30T05:35:46.640Z,17.70
2019-01-30T05:36:54.447Z,13.90
2019-01-30T05:38:02.649Z,17.17
2019-01-30T05:39:10.434Z,18.30
2019-01-30T05:40:23.034Z,11.00
2019-01-30T05:41:30.876Z,14.23
2019-01-30T05:42:38.570Z,17.17
2019-01-30T05:43:46.403Z,15.70
2019-01-30T05:44:54.753Z,12.67
2019-01-30T05:46:02.599Z,17.47
2019-01-30T05:47:10.136Z,10.43
2019-01-30T05:48:18.471Z,11.23
2019-01-30T05:49:29.091Z,13.03
2019-01-30T05:50:35.944Z,8.77
2019-01-30T05:51:44.969Z,12.67
2019-01-30T05:52:52.951Z,20.17
2019-01-30T05:54:01.232Z,11.40
2019-01-30T05:55:12.664Z,18.27
2019-01-30T05:56:20.699Z,13.67
2019-01-30T05:57:28.687Z,15.47
2019-01-30T05:58:36.726Z,16.47
2019-01-30T05:59:44.625Z,16.87
2019-01-30T06:00:52.759Z,14.37
2019-01-30T06:02:11.505Z,15.77
2019-01-30T06:03:11.493Z,12.30
2019-01-30T06:04:19.293Z,18.70
2019-01-30T06:05:27.145Z,19.57
2019-01-30T06:06:35.432Z,13.30
2019-01-30T06:07:43.535Z,13.40
2019-01-30T06:08:51.442Z,14.23
2019-01-30T06:09:59.642Z,11.33
2019-01-30T06:11:07.716Z,15.93
2019-01-30T06:12:15.888Z,11.63
2019-01-30T06:13:24.691Z,11.47
2019-01-30T06:14:32.957Z,18.90
2019-01-30T06:15:41.617Z,14.37
2019-01-30T06:16:49.964Z,14.37
2019-01-30T06:17:58.389Z,20.60
2019-01-30T06:19:06.603Z,20.63
2019-01-30T06:20:18.893Z,17.93
2019-01-30T06:21:26.953Z,14.57
2019-01-30T06:22:35.127Z,17.27
2019-01-30T06:23:43.684Z,15.33
2019-01-30T06:24:51.901Z,16.77
2019-01-30T06:25:59.941Z,16.53
2019-01-30T06:27:08.361Z,19.93
2019-01-30T06:28:17.053Z,20.03
2019-01-30T06:29:25.490Z,13.73
2019-01-30T06:30:34.455Z,22.97
2019-01-30T06:31:42.885Z,16.83
2019-01-30T06:32:50.882Z,26.07
2019-01-30T06:34:00.535Z,17.83
2019-01-30T06:35:09.007Z,9.90
2019-01-30T06:36:16.883Z,8.90
2019-01-30T06:37:26.047Z,14.70
2019-01-30T06:38:35.117Z,14.90
2019-01-30T06:39:42.993Z,23.97
2019-01-30T06:40:51.226Z,19.03
2019-01-30T06:42:00.654Z,15.23
2019-01-30T06:43:09.102Z,12.93
2019-01-30T06:44:17.301Z,15.97
2019-01-30T06:45:25.500Z,24.57
2019-01-30T06:46:34.117Z,15.67
2019-01-30T06:47:42.606Z,10.07
2019-01-30T06:48:50.581Z,21.53
2019-01-30T06:49:59.103Z,18.27
2019-01-30T06:51:08.219Z,18.60
2019-01-30T06:52:16.972Z,17.53
2019-01-30T06:53:25.235Z,20.57
2019-01-30T06:54:33.097Z,18.90
2019-01-30T06:55:41.281Z,15.07
2019-01-30T06:56:49.326Z,11.50
2019-01-30T06:57:57.575Z,10.37
2019-01-30T06:59:05.837Z,25.23
2019-01-30T07:00:20.182Z,22.87
2019-01-30T07:01:28.164Z,19.60
2019-01-30T07:02:36.333Z,20.60
2019-01-30T07:03:44.530Z,25.17
2019-01-30T07:04:52.655Z,22.53
2019-01-30T07:06:00.539Z,12.80
2019-01-30T07:07:08.541Z,21.57
2019-01-30T07:08:17.181Z,26.07
2019-01-30T07:09:25.353Z,23.10
2019-01-30T07:10:33.392Z,21.87
2019-01-30T07:11:41.581Z,20.77
2019-01-30T07:12:49.731Z,22.63
2019-01-30T07:13:57.648Z,23.17
2019-01-30T07:15:07.266Z,27.77
2019-01-30T07:16:15.456Z,24.10
2019-01-30T07:17:23.782Z,21.87
2019-01-30T07:18:31.550Z,17.47
2019-01-30T07:19:39.626Z,23.00
2019-01-30T07:20:47.755Z,22.60
2019-01-30T07:21:56.147Z,17.77
2019-01-30T07:23:04.295Z,16.23
2019-01-30T07:24:12.519Z,17.20
2019-01-30T07:25:23.022Z,24.60
2019-01-30T07:26:31.401Z,18.27
2019-01-30T07:27:39.857Z,12.77
2019-01-30T07:28:48.693Z,16.97
2019-01-30T07:29:57.471Z,16.17
2019-01-30T07:31:06.447Z,23.93
2019-01-30T07:32:14.638Z,12.57
2019-01-30T07:33:23.214Z,25.33
2019-01-30T07:34:31.705Z,19.97
2019-01-30T07:35:39.868Z,20.13
2019-01-30T07:36:48.058Z,25.90
2019-01-30T07:37:58.620Z,25.50
2019-01-30T07:39:09.146Z,19.03
2019-01-30T07:40:17.907Z,27.57
2019-01-30T07:41:26.060Z,19.77
2019-01-30T07:42:34.657Z,16.67
2019-01-30T07:43:42.453Z,19.33
2019-01-30T07:44:51.218Z,18.13
2019-01-30T07:45:59.156Z,23.17
2019-01-30T07:47:07.227Z,25.10
2019-01-30T07:48:15.581Z,28.47
2019-01-30T07:49:24.048Z,21.43
2019-01-30T07:50:32.090Z,21.13
2019-01-30T07:51:40.172Z,31.27
2019-01-30T07:52:48.483Z,25.37
2019-01-30T07:53:56.331Z,28.03
2019-01-30T07:55:05.132Z,25.53
2019-01-30T07:56:13.455Z,25.57
2019-01-30T07:57:21.655Z,16.60
2019-01-30T07:58:29.580Z,15.17
2019-01-30T07:59:37.821Z,27.70
2019-01-30T08:00:46.107Z,18.37
2019-01-30T08:01:54.255Z,27.03
2019-01-30T08:03:02.389Z,16.17
2019-01-30T08:04:10.475Z,23.17
2019-01-30T08:05:18.767Z,30.57
2019-01-30T08:06:26.876Z,23.00
2019-01-30T08:07:34.860Z,17.33
2019-01-30T08:08:42.919Z,25.63
2019-01-30T08:09:51.067Z,16.73
2019-01-30T08:10:59.406Z,32.03
2019-01-30T08:12:07.687Z,28.27
2019-01-30T08:13:15.722Z,25.70
2019-01-30T08:14:24.376Z,38.33
2019-01-30T08:15:32.709Z,24.27
2019-01-30T08:16:41.184Z,23.67
2019-01-30T08:17:49.030Z,20.20
2019-01-30T08:18:57.097Z,20.97
2019-01-30T08:20:08.490Z,14.47
2019-01-30T08:21:16.895Z,24.73
2019-01-30T08:22:24.993Z,14.97
2019-01-30T08:23:33.753Z,28.23
2019-01-30T08:24:41.740Z,15.93
2019-01-30T08:25:49.976Z,25.83
2019-01-30T08:26:58.393Z,22.07
2019-01-30T08:28:08.452Z,33.40
2019-01-30T08:29:18.058Z,33.93
2019-01-30T08:30:30.868Z,27.23
2019-01-30T08:31:38.601Z,14.97
2019-01-30T08:32:47.096Z,10.57
2019-01-30T08:33:55.137Z,42.93
2019-01-30T08:35:03.073Z,14.43
2019-01-30T08:36:11.319Z,18.90
2019-01-30T08:37:20.239Z,21.00
2019-01-30T08:38:28.689Z,21.27
2019-01-30T08:39:36.800Z,29.00
2019-01-30T08:40:44.629Z,30.60
2019-01-30T08:41:52.957Z,22.07
2019-01-30T08:43:01.193Z,22.30
2019-01-30T08:44:09.469Z,20.93
2019-01-30T08:45:21.433Z,28.43
2019-01-30T08:46:30.477Z,17.50
2019-01-30T08:47:38.444Z,20.33
2019-01-30T08:48:46.559Z,16.70
2019-01-30T08:49:54.464Z,27.97
2019-01-30T08:51:02.533Z,16.43
2019-01-30T08:52:10.098Z,19.80
2019-01-30T08:53:17.955Z,26.37
2019-01-30T08:54:26.207Z,28.07
2019-01-30T08:55:34.337Z,42.53
2019-01-30T08:56:52.513Z,37.87
2019-01-30T08:57:52.762Z,22.20
2019-01-30T08:59:01.111Z,26.83
2019-01-30T09:00:16.372Z,23.83
2019-01-30T09:01:25.545Z,31.13
2019-01-30T09:02:33.985Z,24.37
2019-01-30T09:03:41.995Z,33.33
2019-01-30T09:04:50.045Z,25.67
2019-01-30T09:05:57.931Z,33.53
2019-01-30T09:07:06.049Z,34.50
2019-01-30T09:08:16.004Z,31.93
2019-01-30T09:09:23.853Z,37.10
2019-01-30T09:10:31.785Z,20.17
2019-01-30T09:11:39.660Z,29.20
2019-01-30T09:12:48.184Z,39.37
2019-01-30T09:13:56.545Z,17.83
2019-01-30T09:15:06.394Z,28.63
2019-01-30T09:16:14.368Z,19.60
2019-01-30T09:17:22.250Z,31.40
2019-01-30T09:18:30.426Z,30.27
2019-01-30T09:19:38.564Z,31.60
2019-01-30T09:20:46.585Z,42.00
2019-01-30T09:21:54.889Z,28.43
2019-01-30T09:23:02.727Z,34.47
2019-01-30T09:24:10.733Z,34.50
2019-01-30T09:25:27.972Z,25.70
2019-01-30T09:26:35.765Z,13.97
2019-01-30T09:27:43.651Z,31.30
2019-01-30T09:28:51.760Z,33.00
2019-01-30T09:30:01.275Z,25.17
2019-01-30T09:31:09.271Z,34.30
2019-01-30T09:32:19.014Z,33.37
2019-01-30T09:33:27.099Z,15.17
2019-01-30T09:34:35.094Z,27.73
2019-01-30T09:35:43.174Z,18.73
2019-01-30T09:36:51.276Z,40.50
2019-01-30T09:37:59.110Z,25.23
2019-01-30T09:39:08.978Z,40.03
2019-01-30T09:40:19.794Z,26.87
2019-01-30T09:41:27.906Z,32.30
2019-01-30T09:42:35.995Z,17.73
2019-01-30T09:43:43.664Z,14.40
2019-01-30T09:44:52.055Z,34.67
2019-01-30T09:46:00.155Z,32.13
2019-01-30T09:47:08.329Z,32.27
2019-01-30T09:48:16.682Z,32.47
2019-01-30T09:49:25.064Z,27.03
2019-01-30T09:50:34.319Z,22.57
2019-01-30T09:51:42.418Z,41.03
2019-01-30T09:52:52.320Z,21.70
2019-01-30T09:54:00.485Z,20.97
2019-01-30T09:55:12.334Z,25.53
2019-01-30T09:56:20.511Z,27.40
2019-01-30T09:57:28.701Z,24.20
2019-01-30T09:58:37.151Z,35.23
2019-01-30T09:59:44.904Z,22.20
2019-01-30T10:00:53.043Z,32.43
2019-01-30T10:02:00.973Z,28.57
2019-01-30T10:03:09.365Z,23.63
2019-01-30T10:04:19.541Z,18.80
2019-01-30T10:05:27.971Z,25.87
2019-01-30T10:06:36.736Z,39.00
2019-01-30T10:07:44.612Z,36.73
2019-01-30T10:08:52.687Z,35.47
2019-01-30T10:10:00.582Z,33.77
2019-01-30T10:11:09.962Z,22.47
2019-01-30T10:12:18.400Z,20.50
2019-01-30T10:13:26.185Z,34.70
2019-01-30T10:14:35.182Z,27.47
2019-01-30T10:15:45.737Z,32.67
2019-01-30T10:16:54.086Z,25.10
2019-01-30T10:18:02.218Z,42.10
2019-01-30T10:19:10.333Z,39.50
2019-01-30T10:20:22.273Z,44.27
2019-01-30T10:21:30.553Z,36.47
2019-01-30T10:22:38.999Z,25.70
2019-01-30T10:23:46.812Z,29.93
2019-01-30T10:24:54.580Z,33.43
2019-01-30T10:26:02.720Z,25.93
2019-01-30T10:27:10.940Z,45.67
2019-01-30T10:28:19.471Z,30.20
2019-01-30T10:29:27.599Z,31.90
2019-01-30T10:30:42.321Z,32.37
2019-01-30T10:31:50.025Z,42.57
2019-01-30T10:32:58.447Z,29.60
2019-01-30T10:34:07.243Z,28.33
2019-01-30T10:35:15.209Z,31.77
2019-01-30T10:36:23.762Z,25.03
2019-01-30T10:37:31.442Z,29.87
2019-01-30T10:38:39.366Z,28.77
2019-01-30T10:39:47.293Z,33.10
2019-01-30T10:40:55.034Z,39.63
2019-01-30T10:42:03.463Z,23.43
2019-01-30T10:43:11.447Z,22.63
2019-01-30T10:44:19.626Z,20.17
2019-01-30T10:45:27.561Z,28.87
2019-01-30T10:46:35.534Z,27.13
2019-01-30T10:47:43.318Z,38.70
2019-01-30T10:48:51.108Z,30.83
2019-01-30T10:49:58.997Z,37.47
2019-01-30T10:51:07.473Z,39.33
2019-01-30T10:52:15.947Z,31.40
2019-01-30T10:53:24.387Z,21.17
2019-01-30T10:54:32.244Z,31.97
2019-01-30T10:55:40.601Z,38.83
2019-01-30T10:56:49.084Z,34.97
2019-01-30T10:57:59.360Z,33.23
2019-01-30T10:59:07.119Z,30.97
2019-01-30T11:00:30.704Z,37.53
2019-01-30T11:01:38.701Z,30.23
2019-01-30T11:02:46.632Z,34.43
2019-01-30T11:03:57.507Z,39.87
2019-01-30T11:05:05.634Z,34.40
2019-01-30T11:06:13.580Z,34.23
2019-01-30T11:07:21.428Z,25.10
2019-01-30T11:08:29.751Z,30.10
2019-01-30T11:09:38.699Z,40.60
2019-01-30T11:10:46.937Z,29.67
2019-01-30T11:11:54.663Z,33.47
2019-01-30T11:13:02.505Z,29.67
2019-01-30T11:14:10.723Z,28.43
2019-01-30T11:15:22.318Z,31.67
2019-01-30T11:16:31.131Z,41.13
2019-01-30T11:17:39.023Z,16.10
2019-01-30T11:18:47.067Z,19.87
2019-01-30T11:19:54.784Z,23.60
2019-01-30T11:21:03.110Z,30.17
2019-01-30T11:22:13.194Z,27.83
2019-01-30T11:23:21.839Z,35.80
2019-01-30T11:24:29.929Z,30.63
2019-01-30T11:25:41.880Z,24.23
2019-01-30T11:26:49.636Z,34.27
2019-01-30T11:27:57.703Z,34.03
2019-01-30T11:29:06.557Z,37.77
2019-01-30T11:30:18.778Z,38.77
2019-01-30T11:31:28.606Z,27.60
2019-01-30T11:32:37.231Z,22.03
2019-01-30T11:33:47.206Z,25.23
2019-01-30T11:34:56.150Z,23.83
2019-01-30T11:36:04.923Z,21.73
2019-01-30T11:37:14.112Z,31.00
2019-01-30T11:38:23.522Z,30.87
2019-01-30T11:39:32.574Z,30.17
2019-01-30T11:40:42.400Z,22.77
2019-01-30T11:41:52.066Z,46.20
2019-01-30T11:43:00.706Z,28.57
2019-01-30T11:44:08.795Z,31.07
2019-01-30T11:45:27.021Z,40.00
2019-01-30T11:46:36.440Z,15.20
2019-01-30T11:47:45.409Z,23.53
2019-01-30T11:48:56.535Z,31.47
2019-01-30T11:50:05.131Z,22.23
2019-01-30T11:51:15.450Z,29.23
2019-01-30T11:52:23.502Z,27.90
2019-01-30T11:53:31.838Z,19.97
2019-01-30T11:54:39.686Z,15.30
2019-01-30T11:55:48.082Z,15.17
2019-01-30T11:56:56.376Z,30.33
2019-01-30T11:58:04.732Z,18.03
2019-01-30T11:59:12.838Z,25.23
2019-01-30T12:00:29.127Z,39.77
2019-01-30T12:01:38.193Z,34.10
2019-01-30T12:02:47.941Z,27.10
2019-01-30T12:03:56.226Z,18.33
2019-01-30T12:05:04.393Z,31.57
2019-01-30T12:06:12.538Z,27.77
2019-01-30T12:07:20.984Z,14.47
2019-01-30T12:08:29.949Z,24.77
2019-01-30T12:09:38.150Z,22.77
2019-01-30T12:10:46.390Z,30.77
2019-01-30T12:11:54.554Z,14.43
2019-01-30T12:13:02.218Z,29.70
2019-01-30T12:14:10.231Z,21.50
2019-01-30T12:15:26.874Z,26.47
2019-01-30T12:16:36.594Z,29.53
2019-01-30T12:17:44.752Z,28.00
2019-01-30T12:18:52.841Z,34.20
2019-01-30T12:20:00.988Z,34.60
2019-01-30T12:21:09.114Z,32.30
2019-01-30T12:22:16.783Z,20.20
2019-01-30T12:23:24.644Z,28.50
2019-01-30T12:24:33.395Z,35.37
2019-01-30T12:25:41.643Z,32.87
2019-01-30T12:26:51.770Z,33.17
2019-01-30T12:28:01.229Z,23.53
2019-01-30T12:29:10.032Z,22.57
2019-01-30T12:30:27.676Z,18.67
2019-01-30T12:31:35.986Z,17.93
2019-01-30T12:32:44.820Z,26.00
2019-01-30T12:33:53.447Z,34.80
2019-01-30T12:35:02.106Z,29.60
2019-01-30T12:36:10.701Z,34.40
2019-01-30T12:37:19.441Z,33.33
2019-01-30T12:38:28.053Z,29.47
2019-01-30T12:39:35.824Z,29.67
2019-01-30T12:40:44.356Z,38.73
2019-01-30T12:41:52.412Z,31.37
2019-01-30T12:43:00.889Z,30.10
2019-01-30T12:44:09.405Z,23.90
2019-01-30T12:45:35.420Z,13.10
2019-01-30T12:46:44.519Z,27.70
2019-01-30T12:47:53.170Z,21.10
2019-01-30T12:49:01.612Z,31.47
2019-01-30T12:50:09.769Z,16.20
2019-01-30T12:51:17.862Z,32.63
2019-01-30T12:52:25.712Z,23.30
2019-01-30T12:53:34.871Z,16.50
2019-01-30T12:54:42.887Z,20.97
2019-01-30T12:55:51.470Z,18.83
2019-01-30T12:56:59.605Z,24.93
2019-01-30T12:58:07.487Z,19.00
2019-01-30T12:59:15.158Z,19.37
2019-01-30T13:00:30.776Z,23.07
2019-01-30T13:01:38.469Z,26.93
2019-01-30T13:02:46.270Z,20.33
2019-01-30T13:03:54.509Z,23.00
2019-01-30T13:05:02.402Z,26.53
2019-01-30T13:06:11.214Z,23.87
2019-01-30T13:07:19.111Z,31.33
2019-01-30T13:08:27.229Z,22.10
2019-01-30T13:09:35.397Z,18.33
2019-01-30T13:10:43.396Z,33.33
2019-01-30T13:11:51.691Z,36.83
2019-01-30T13:12:59.890Z,26.80
2019-01-30T13:14:07.427Z,26.13
2019-01-30T13:15:22.127Z,21.97
2019-01-30T13:16:30.899Z,16.80
2019-01-30T13:17:38.831Z,27.50
2019-01-30T13:18:47.282Z,26.87
2019-01-30T13:19:55.441Z,18.33
2019-01-30T13:21:03.770Z,25.43
2019-01-30T13:22:12.053Z,24.97
2019-01-30T13:23:19.718Z,19.70
2019-01-30T13:24:28.054Z,28.63
2019-01-30T13:25:36.391Z,17.27
2019-01-30T13:26:44.332Z,19.20
2019-01-30T13:27:52.228Z,27.47
2019-01-30T13:29:00.576Z,29.77
2019-01-30T13:30:16.147Z,27.30
2019-01-30T13:31:23.934Z,29.63
2019-01-30T13:32:32.187Z,27.87
2019-01-30T13:33:40.498Z,24.57
2019-01-30T13:34:49.195Z,22.47
2019-01-30T13:35:57.196Z,28.83
2019-01-30T13:37:05.123Z,35.90
2019-01-30T13:38:13.282Z,16.57
2019-01-30T13:39:21.076Z,27.57
2019-01-30T13:40:32.842Z,34.73
2019-01-30T13:41:40.581Z,31.60
2019-01-30T13:42:49.089Z,25.40
2019-01-30T13:43:57.249Z,29.37
2019-01-30T13:45:08.507Z,26.10
2019-01-30T13:46:16.499Z,32.40
2019-01-30T13:47:24.907Z,32.00
2019-01-30T13:48:33.561Z,41.70
2019-01-30T13:49:41.443Z,29.07
2019-01-30T13:50:49.409Z,40.33
2019-01-30T13:51:57.964Z,42.80
2019-01-30T13:53:05.967Z,24.20
2019-01-30T13:54:13.900Z,30.03
2019-01-30T13:55:22.198Z,20.33
2019-01-30T13:56:30.496Z,32.57
2019-01-30T13:57:38.709Z,30.97
2019-01-30T13:58:46.585Z,26.57
2019-01-30T13:59:55.530Z,29.33
2019-01-30T14:01:03.527Z,32.40
2019-01-30T14:02:11.690Z,33.00
2019-01-30T14:03:19.418Z,24.03
2019-01-30T14:04:27.435Z,34.70
2019-01-30T14:05:35.883Z,36.53
2019-01-30T14:06:44.213Z,30.90
2019-01-30T14:07:52.391Z,27.10
2019-01-30T14:09:00.267Z,23.83
2019-01-30T14:10:11.632Z,24.37
2019-01-30T14:11:19.538Z,25.00
2019-01-30T14:12:27.663Z,24.53
2019-01-30T14:13:35.594Z,31.77
2019-01-30T14:14:44.272Z,21.57
2019-01-30T14:15:52.732Z,15.40
2019-01-30T14:17:00.982Z,26.33
2019-01-30T14:18:10.123Z,26.70
2019-01-30T14:19:20.557Z,35.53
2019-01-30T14:20:30.138Z,30.37
2019-01-30T14:21:38.812Z,28.63
2019-01-30T14:22:46.989Z,29.90
2019-01-30T14:23:55.193Z,29.23
2019-01-30T14:25:03.408Z,33.00
2019-01-30T14:26:11.490Z,22.07
2019-01-30T14:27:19.267Z,28.07
2019-01-30T14:28:27.402Z,32.57
2019-01-30T14:29:35.701Z,28.50
2019-01-30T14:30:44.435Z,30.23
2019-01-30T14:31:52.894Z,25.03
2019-01-30T14:33:01.640Z,29.67
2019-01-30T14:34:09.945Z,20.87
2019-01-30T14:35:18.111Z,16.37
2019-01-30T14:36:26.764Z,18.80
2019-01-30T14:37:34.956Z,28.73
2019-01-30T14:38:43.253Z,22.57
2019-01-30T14:39:51.893Z,26.43
2019-01-30T14:41:00.063Z,27.57
2019-01-30T14:42:08.762Z,19.93
2019-01-30T14:43:17.562Z,19.77
2019-01-30T14:44:25.949Z,22.40